sensor_id;sensor_type;location;lat;lon;timestamp;temperature;humidity
15707;DHT22;7953;54.302;10.128;2023-08-07T00:02:01;15.80;99.90
15707;DHT22;7953;54.302;10.128;2023-08-07T00:04:29;15.70;99.90
15707;DHT22;7953;54.302;10.128;2023-08-07T00:06:57;15.70;99.90
15707;DHT22;7953;54.302;10.128;2023-08-07T00:09:24;15.70;99.90
15707;DHT22;7953;54.302;10.128;2023-08-07T00:11:51;15.70;99.90
15707;DHT22;7953;54.302;10.128;2023-08-07T00:14:18;15.70;99.90
15707;DHT22;7953;54.302;10.128;2023-08-07T00:16:45;15.70;99.90
15707;DHT22;7953;54.302;10.128;2023-08-07T00:19:11;15.60;99.90
15707;DHT22;7953;54.302;10.128;2023-08-07T00:21:38;15.60;99.90
15707;DHT22;7953;54.302;10.128;2023-08-07T00:24:06;15.60;99.90
15707;DHT22;7953;54.302;10.128;2023-08-07T00:26:33;15.60;99.90
15707;DHT22;7953;54.302;10.128;2023-08-07T00:29:00;15.60;99.90
15707;DHT22;7953;54.302;10.128;2023-08-07T00:31:27;15.60;99.90
15707;DHT22;7953;54.302;10.128;2023-08-07T00:33:56;15.50;99.90
15707;DHT22;7953;54.302;10.128;2023-08-07T00:36:23;15.50;99.90
15707;DHT22;7953;54.302;10.128;2023-08-07T00:38:51;15.50;99.90
15707;DHT22;7953;54.302;10.128;2023-08-07T00:41:19;15.50;99.90
15707;DHT22;7953;54.302;10.128;2023-08-07T00:43:46;15.50;99.90
15707;DHT22;7953;54.302;10.128;2023-08-07T00:46:14;15.40;99.90
15707;DHT22;7953;54.302;10.128;2023-08-07T00:48:41;15.50;99.90
15707;DHT22;7953;54.302;10.128;2023-08-07T00:51:08;15.50;99.90
15707;DHT22;7953;54.302;10.128;2023-08-07T00:53:38;15.50;99.90
15707;DHT22;7953;54.302;10.128;2023-08-07T00:56:05;15.40;99.90
15707;DHT22;7953;54.302;10.128;2023-08-07T00:58:33;15.40;99.90
15707;DHT22;7953;54.302;10.128;2023-08-07T01:01:01;15.50;99.90
15707;DHT22;7953;54.302;10.128;2023-08-07T01:03:28;15.40;99.90
15707;DHT22;7953;54.302;10.128;2023-08-07T01:05:54;15.40;99.90
15707;DHT22;7953;54.302;10.128;2023-08-07T01:08:22;15.40;99.90
15707;DHT22;7953;54.302;10.128;2023-08-07T01:11:04;15.40;99.90
15707;DHT22;7953;54.302;10.128;2023-08-07T01:13:42;15.40;99.90
15707;DHT22;7953;54.302;10.128;2023-08-07T01:16:16;15.40;99.90
15707;DHT22;7953;54.302;10.128;2023-08-07T01:18:45;15.40;99.90
15707;DHT22;7953;54.302;10.128;2023-08-07T01:21:17;15.30;99.90
15707;DHT22;7953;54.302;10.128;2023-08-07T01:23:46;15.30;99.90
15707;DHT22;7953;54.302;10.128;2023-08-07T01:26:13;15.30;99.90
15707;DHT22;7953;54.302;10.128;2023-08-07T01:28:45;15.30;99.90
15707;DHT22;7953;54.302;10.128;2023-08-07T01:31:14;15.30;99.90
15707;DHT22;7953;54.302;10.128;2023-08-07T01:33:47;15.30;99.90
15707;DHT22;7953;54.302;10.128;2023-08-07T01:36:16;15.30;99.90
15707;DHT22;7953;54.302;10.128;2023-08-07T01:38:43;15.30;99.90
15707;DHT22;7953;54.302;10.128;2023-08-07T01:41:12;15.30;99.90
15707;DHT22;7953;54.302;10.128;2023-08-07T01:43:40;15.30;99.90
15707;DHT22;7953;54.302;10.128;2023-08-07T01:46:07;15.30;99.90
15707;DHT22;7953;54.302;10.128;2023-08-07T01:48:34;15.30;99.90
15707;DHT22;7953;54.302;10.128;2023-08-07T01:51:01;15.20;99.90
15707;DHT22;7953;54.302;10.128;2023-08-07T01:53:27;15.20;99.90
15707;DHT22;7953;54.302;10.128;2023-08-07T01:55:54;15.20;99.90
15707;DHT22;7953;54.302;10.128;2023-08-07T01:58:23;15.20;99.90
15707;DHT22;7953;54.302;10.128;2023-08-07T02:00:49;15.20;99.90
15707;DHT22;7953;54.302;10.128;2023-08-07T02:03:16;15.20;99.90
15707;DHT22;7953;54.302;10.128;2023-08-07T02:05:45;15.20;99.90
15707;DHT22;7953;54.302;10.128;2023-08-07T02:08:12;15.20;99.90
15707;DHT22;7953;54.302;10.128;2023-08-07T02:10:39;15.20;99.90
15707;DHT22;7953;54.302;10.128;2023-08-07T02:13:05;15.20;99.90
15707;DHT22;7953;54.302;10.128;2023-08-07T02:15:34;15.20;99.90
15707;DHT22;7953;54.302;10.128;2023-08-07T02:18:00;15.20;99.90
15707;DHT22;7953;54.302;10.128;2023-08-07T02:20:27;15.20;99.90
15707;DHT22;7953;54.302;10.128;2023-08-07T02:22:54;15.20;99.90
15707;DHT22;7953;54.302;10.128;2023-08-07T02:25:21;15.20;99.90
15707;DHT22;7953;54.302;10.128;2023-08-07T02:27:48;15.20;99.90
15707;DHT22;7953;54.302;10.128;2023-08-07T02:30:15;15.10;99.90
15707;DHT22;7953;54.302;10.128;2023-08-07T02:32:43;15.10;99.90
15707;DHT22;7953;54.302;10.128;2023-08-07T02:35:11;15.10;99.90
15707;DHT22;7953;54.302;10.128;2023-08-07T02:37:38;15.10;99.90
15707;DHT22;7953;54.302;10.128;2023-08-07T02:40:06;15.10;99.90
15707;DHT22;7953;54.302;10.128;2023-08-07T02:42:33;15.10;99.90
15707;DHT22;7953;54.302;10.128;2023-08-07T02:45:00;15.10;99.90
15707;DHT22;7953;54.302;10.128;2023-08-07T02:47:27;15.10;99.90
15707;DHT22;7953;54.302;10.128;2023-08-07T02:49:55;15.10;99.90
15707;DHT22;7953;54.302;10.128;2023-08-07T02:52:22;15.10;99.90
15707;DHT22;7953;54.302;10.128;2023-08-07T02:54:49;15.10;99.90
15707;DHT22;7953;54.302;10.128;2023-08-07T02:57:15;15.10;99.90
15707;DHT22;7953;54.302;10.128;2023-08-07T02:59:42;15.10;99.90
15707;DHT22;7953;54.302;10.128;2023-08-07T03:02:09;15.10;99.90
15707;DHT22;7953;54.302;10.128;2023-08-07T03:04:36;15.10;99.90
15707;DHT22;7953;54.302;10.128;2023-08-07T03:07:05;15.00;99.90
15707;DHT22;7953;54.302;10.128;2023-08-07T03:09:32;15.00;99.90
15707;DHT22;7953;54.302;10.128;2023-08-07T03:11:58;15.00;99.90
15707;DHT22;7953;54.302;10.128;2023-08-07T03:14:28;15.00;99.90
15707;DHT22;7953;54.302;10.128;2023-08-07T03:16:55;15.00;99.90
15707;DHT22;7953;54.302;10.128;2023-08-07T03:19:22;15.00;99.90
15707;DHT22;7953;54.302;10.128;2023-08-07T03:21:50;15.00;99.90
15707;DHT22;7953;54.302;10.128;2023-08-07T03:24:18;15.00;99.90
15707;DHT22;7953;54.302;10.128;2023-08-07T03:26:45;15.00;99.90
15707;DHT22;7953;54.302;10.128;2023-08-07T03:29:13;15.00;99.90
15707;DHT22;7953;54.302;10.128;2023-08-07T03:31:39;15.10;99.90
15707;DHT22;7953;54.302;10.128;2023-08-07T03:34:06;15.10;99.90
15707;DHT22;7953;54.302;10.128;2023-08-07T03:36:33;15.10;99.90
15707;DHT22;7953;54.302;10.128;2023-08-07T03:39:00;15.20;99.90
15707;DHT22;7953;54.302;10.128;2023-08-07T03:41:28;15.10;99.90
15707;DHT22;7953;54.302;10.128;2023-08-07T03:43:55;15.10;99.90
15707;DHT22;7953;54.302;10.128;2023-08-07T03:46:22;15.10;99.90
15707;DHT22;7953;54.302;10.128;2023-08-07T03:48:49;15.00;99.90
15707;DHT22;7953;54.302;10.128;2023-08-07T03:51:16;15.00;99.90
15707;DHT22;7953;54.302;10.128;2023-08-07T03:53:43;15.00;99.90
15707;DHT22;7953;54.302;10.128;2023-08-07T03:56:10;15.00;99.90
15707;DHT22;7953;54.302;10.128;2023-08-07T03:58:39;15.10;99.90
15707;DHT22;7953;54.302;10.128;2023-08-07T04:01:06;15.10;99.90
15707;DHT22;7953;54.302;10.128;2023-08-07T04:03:33;15.10;99.90
15707;DHT22;7953;54.302;10.128;2023-08-07T04:06:01;15.10;99.90
15707;DHT22;7953;54.302;10.128;2023-08-07T04:08:28;15.10;99.90
15707;DHT22;7953;54.302;10.128;2023-08-07T04:10:58;15.10;99.90
15707;DHT22;7953;54.302;10.128;2023-08-07T04:13:26;15.20;99.90
15707;DHT22;7953;54.302;10.128;2023-08-07T04:15:54;15.20;99.90
15707;DHT22;7953;54.302;10.128;2023-08-07T04:18:21;15.20;99.90
15707;DHT22;7953;54.302;10.128;2023-08-07T04:20:49;15.20;99.90
15707;DHT22;7953;54.302;10.128;2023-08-07T04:23:18;15.20;99.90
15707;DHT22;7953;54.302;10.128;2023-08-07T04:25:45;15.20;99.90
15707;DHT22;7953;54.302;10.128;2023-08-07T04:28:12;15.20;99.90
15707;DHT22;7953;54.302;10.128;2023-08-07T04:30:39;15.20;99.90
15707;DHT22;7953;54.302;10.128;2023-08-07T04:33:08;15.20;99.90
15707;DHT22;7953;54.302;10.128;2023-08-07T04:35:35;15.20;99.90
15707;DHT22;7953;54.302;10.128;2023-08-07T04:38:02;15.20;99.90
15707;DHT22;7953;54.302;10.128;2023-08-07T04:40:29;15.20;99.90
15707;DHT22;7953;54.302;10.128;2023-08-07T04:42:56;15.20;99.90
15707;DHT22;7953;54.302;10.128;2023-08-07T04:45:23;15.20;99.90
15707;DHT22;7953;54.302;10.128;2023-08-07T04:47:50;15.20;99.90
15707;DHT22;7953;54.302;10.128;2023-08-07T04:50:18;15.20;99.90
15707;DHT22;7953;54.302;10.128;2023-08-07T04:52:45;15.30;99.90
15707;DHT22;7953;54.302;10.128;2023-08-07T04:55:12;15.30;99.90
15707;DHT22;7953;54.302;10.128;2023-08-07T04:57:39;15.30;99.90
15707;DHT22;7953;54.302;10.128;2023-08-07T05:00:07;15.40;99.90
15707;DHT22;7953;54.302;10.128;2023-08-07T05:02:35;15.40;99.90
15707;DHT22;7953;54.302;10.128;2023-08-07T05:05:01;15.40;99.90
15707;DHT22;7953;54.302;10.128;2023-08-07T05:07:30;15.40;99.90
15707;DHT22;7953;54.302;10.128;2023-08-07T05:09:59;15.40;99.90
15707;DHT22;7953;54.302;10.128;2023-08-07T05:12:26;15.40;99.90
15707;DHT22;7953;54.302;10.128;2023-08-07T05:14:53;15.50;99.90
15707;DHT22;7953;54.302;10.128;2023-08-07T05:17:20;15.50;99.90
15707;DHT22;7953;54.302;10.128;2023-08-07T05:19:47;15.50;99.90
15707;DHT22;7953;54.302;10.128;2023-08-07T05:22:13;15.50;99.90
15707;DHT22;7953;54.302;10.128;2023-08-07T05:24:42;15.60;99.90
15707;DHT22;7953;54.302;10.128;2023-08-07T05:27:10;15.60;99.90
15707;DHT22;7953;54.302;10.128;2023-08-07T05:29:37;15.60;99.90
15707;DHT22;7953;54.302;10.128;2023-08-07T05:32:09;15.60;99.90
15707;DHT22;7953;54.302;10.128;2023-08-07T05:34:36;15.70;99.90
15707;DHT22;7953;54.302;10.128;2023-08-07T05:37:04;15.70;99.90
15707;DHT22;7953;54.302;10.128;2023-08-07T05:39:31;15.70;99.90
15707;DHT22;7953;54.302;10.128;2023-08-07T05:41:59;15.90;99.90
15707;DHT22;7953;54.302;10.128;2023-08-07T05:44:26;15.90;99.90
15707;DHT22;7953;54.302;10.128;2023-08-07T05:46:53;15.80;99.90
15707;DHT22;7953;54.302;10.128;2023-08-07T05:49:21;15.90;99.90
15707;DHT22;7953;54.302;10.128;2023-08-07T05:51:47;15.90;99.90
15707;DHT22;7953;54.302;10.128;2023-08-07T05:54:14;16.00;99.90
15707;DHT22;7953;54.302;10.128;2023-08-07T05:56:42;16.10;99.90
15707;DHT22;7953;54.302;10.128;2023-08-07T05:59:10;16.10;99.90
15707;DHT22;7953;54.302;10.128;2023-08-07T06:01:37;16.10;99.90
15707;DHT22;7953;54.302;10.128;2023-08-07T06:04:04;16.10;99.90
15707;DHT22;7953;54.302;10.128;2023-08-07T06:06:31;16.10;99.90
15707;DHT22;7953;54.302;10.128;2023-08-07T06:09:00;16.10;99.90
15707;DHT22;7953;54.302;10.128;2023-08-07T06:11:28;16.10;99.90
15707;DHT22;7953;54.302;10.128;2023-08-07T06:13:54;16.20;99.90
15707;DHT22;7953;54.302;10.128;2023-08-07T06:16:23;16.20;99.90
15707;DHT22;7953;54.302;10.128;2023-08-07T06:18:50;16.30;99.90
15707;DHT22;7953;54.302;10.128;2023-08-07T06:21:16;16.30;99.90
15707;DHT22;7953;54.302;10.128;2023-08-07T06:23:43;16.40;99.90
15707;DHT22;7953;54.302;10.128;2023-08-07T06:26:10;16.40;99.90
15707;DHT22;7953;54.302;10.128;2023-08-07T06:28:37;16.40;99.90
15707;DHT22;7953;54.302;10.128;2023-08-07T06:31:05;16.40;99.90
15707;DHT22;7953;54.302;10.128;2023-08-07T06:33:34;16.40;99.90
15707;DHT22;7953;54.302;10.128;2023-08-07T06:36:01;16.50;99.90
15707;DHT22;7953;54.302;10.128;2023-08-07T06:38:28;16.50;99.90
15707;DHT22;7953;54.302;10.128;2023-08-07T06:40:55;16.50;99.90
15707;DHT22;7953;54.302;10.128;2023-08-07T06:43:22;16.60;99.90
15707;DHT22;7953;54.302;10.128;2023-08-07T06:45:49;16.60;99.90
15707;DHT22;7953;54.302;10.128;2023-08-07T06:48:17;16.60;99.90
15707;DHT22;7953;54.302;10.128;2023-08-07T06:50:46;16.60;99.90
15707;DHT22;7953;54.302;10.128;2023-08-07T06:53:13;16.60;99.90
15707;DHT22;7953;54.302;10.128;2023-08-07T06:55:41;16.70;99.90
15707;DHT22;7953;54.302;10.128;2023-08-07T06:58:08;16.70;99.90
15707;DHT22;7953;54.302;10.128;2023-08-07T07:00:34;16.70;99.90
15707;DHT22;7953;54.302;10.128;2023-08-07T07:03:02;16.60;99.90
15707;DHT22;7953;54.302;10.128;2023-08-07T07:05:29;16.70;99.90
15707;DHT22;7953;54.302;10.128;2023-08-07T07:07:57;16.70;99.90
15707;DHT22;7953;54.302;10.128;2023-08-07T07:10:24;16.70;99.90
15707;DHT22;7953;54.302;10.128;2023-08-07T07:12:51;16.70;99.90
15707;DHT22;7953;54.302;10.128;2023-08-07T07:15:18;16.80;99.90
15707;DHT22;7953;54.302;10.128;2023-08-07T07:17:45;16.80;99.90
15707;DHT22;7953;54.302;10.128;2023-08-07T07:20:12;16.90;99.90
15707;DHT22;7953;54.302;10.128;2023-08-07T07:22:39;17.00;99.90
15707;DHT22;7953;54.302;10.128;2023-08-07T07:25:09;17.00;99.90
15707;DHT22;7953;54.302;10.128;2023-08-07T07:27:36;17.00;99.90
15707;DHT22;7953;54.302;10.128;2023-08-07T07:30:03;17.10;99.90
15707;DHT22;7953;54.302;10.128;2023-08-07T07:32:30;17.10;99.90
15707;DHT22;7953;54.302;10.128;2023-08-07T07:34:57;17.10;99.90
15707;DHT22;7953;54.302;10.128;2023-08-07T07:37:24;17.10;99.90
15707;DHT22;7953;54.302;10.128;2023-08-07T07:39:51;17.10;99.90
15707;DHT22;7953;54.302;10.128;2023-08-07T07:42:19;17.10;99.90
15707;DHT22;7953;54.302;10.128;2023-08-07T07:44:46;17.10;99.90
15707;DHT22;7953;54.302;10.128;2023-08-07T07:47:13;17.10;99.90
15707;DHT22;7953;54.302;10.128;2023-08-07T07:49:44;17.00;99.90
15707;DHT22;7953;54.302;10.128;2023-08-07T07:52:12;17.00;99.90
15707;DHT22;7953;54.302;10.128;2023-08-07T07:54:39;16.90;99.90
15707;DHT22;7953;54.302;10.128;2023-08-07T07:57:06;16.90;99.90
15707;DHT22;7953;54.302;10.128;2023-08-07T07:59:34;17.00;99.90
15707;DHT22;7953;54.302;10.128;2023-08-07T08:02:01;17.10;99.90
15707;DHT22;7953;54.302;10.128;2023-08-07T08:04:28;17.20;99.90
15707;DHT22;7953;54.302;10.128;2023-08-07T08:06:55;17.30;99.90
15707;DHT22;7953;54.302;10.128;2023-08-07T08:09:22;17.40;99.90
15707;DHT22;7953;54.302;10.128;2023-08-07T08:11:49;17.50;99.90
15707;DHT22;7953;54.302;10.128;2023-08-07T08:14:16;17.50;99.90
15707;DHT22;7953;54.302;10.128;2023-08-07T08:16:44;17.50;99.90
15707;DHT22;7953;54.302;10.128;2023-08-07T08:19:11;17.50;99.90
15707;DHT22;7953;54.302;10.128;2023-08-07T08:21:39;17.50;99.90
15707;DHT22;7953;54.302;10.128;2023-08-07T08:24:06;17.60;99.90
15707;DHT22;7953;54.302;10.128;2023-08-07T08:26:33;17.70;99.90
15707;DHT22;7953;54.302;10.128;2023-08-07T08:29:00;17.80;99.90
15707;DHT22;7953;54.302;10.128;2023-08-07T08:31:27;17.70;99.90
15707;DHT22;7953;54.302;10.128;2023-08-07T08:33:55;17.70;99.90
15707;DHT22;7953;54.302;10.128;2023-08-07T08:36:23;17.70;99.90
15707;DHT22;7953;54.302;10.128;2023-08-07T08:38:50;17.70;99.90
15707;DHT22;7953;54.302;10.128;2023-08-07T08:41:17;17.80;99.90
15707;DHT22;7953;54.302;10.128;2023-08-07T08:43:46;17.80;99.90
15707;DHT22;7953;54.302;10.128;2023-08-07T08:46:15;17.80;99.90
15707;DHT22;7953;54.302;10.128;2023-08-07T08:48:48;17.80;99.90
15707;DHT22;7953;54.302;10.128;2023-08-07T08:51:19;17.80;99.90
15707;DHT22;7953;54.302;10.128;2023-08-07T08:53:47;17.80;99.90
15707;DHT22;7953;54.302;10.128;2023-08-07T08:56:15;17.90;99.90
15707;DHT22;7953;54.302;10.128;2023-08-07T08:58:42;17.90;99.90
15707;DHT22;7953;54.302;10.128;2023-08-07T09:01:09;18.00;99.90
15707;DHT22;7953;54.302;10.128;2023-08-07T09:03:36;18.00;99.90
15707;DHT22;7953;54.302;10.128;2023-08-07T09:06:04;18.00;99.90
15707;DHT22;7953;54.302;10.128;2023-08-07T09:08:34;18.00;99.90
15707;DHT22;7953;54.302;10.128;2023-08-07T09:11:02;18.10;99.90
15707;DHT22;7953;54.302;10.128;2023-08-07T09:13:31;18.10;99.90
15707;DHT22;7953;54.302;10.128;2023-08-07T09:16:00;18.10;99.90
15707;DHT22;7953;54.302;10.128;2023-08-07T09:18:28;18.10;99.90
15707;DHT22;7953;54.302;10.128;2023-08-07T09:20:55;18.10;99.90
15707;DHT22;7953;54.302;10.128;2023-08-07T09:23:24;18.10;99.90
15707;DHT22;7953;54.302;10.128;2023-08-07T09:26:00;18.20;99.90
15707;DHT22;7953;54.302;10.128;2023-08-07T09:28:28;18.20;99.90
15707;DHT22;7953;54.302;10.128;2023-08-07T09:30:56;18.10;99.90
15707;DHT22;7953;54.302;10.128;2023-08-07T09:33:26;17.90;99.90
15707;DHT22;7953;54.302;10.128;2023-08-07T09:35:53;17.90;99.90
15707;DHT22;7953;54.302;10.128;2023-08-07T09:38:23;17.90;99.90
15707;DHT22;7953;54.302;10.128;2023-08-07T09:40:50;17.90;99.90
15707;DHT22;7953;54.302;10.128;2023-08-07T09:43:22;17.90;99.90
15707;DHT22;7953;54.302;10.128;2023-08-07T09:45:49;17.90;99.90
15707;DHT22;7953;54.302;10.128;2023-08-07T09:48:24;18.10;99.90
15707;DHT22;7953;54.302;10.128;2023-08-07T09:50:53;18.10;99.90
15707;DHT22;7953;54.302;10.128;2023-08-07T09:53:25;18.10;99.90
15707;DHT22;7953;54.302;10.128;2023-08-07T09:55:52;17.90;99.90
15707;DHT22;7953;54.302;10.128;2023-08-07T09:58:21;17.70;99.90
15707;DHT22;7953;54.302;10.128;2023-08-07T10:00:48;17.60;99.90
15707;DHT22;7953;54.302;10.128;2023-08-07T10:03:15;17.50;99.90
15707;DHT22;7953;54.302;10.128;2023-08-07T10:05:43;17.40;99.90
15707;DHT22;7953;54.302;10.128;2023-08-07T10:08:11;17.50;99.90
15707;DHT22;7953;54.302;10.128;2023-08-07T10:10:38;17.60;99.90
15707;DHT22;7953;54.302;10.128;2023-08-07T10:13:05;17.50;99.90
15707;DHT22;7953;54.302;10.128;2023-08-07T10:15:34;17.40;99.90
15707;DHT22;7953;54.302;10.128;2023-08-07T10:18:01;17.40;99.90
15707;DHT22;7953;54.302;10.128;2023-08-07T10:20:29;17.40;99.90
15707;DHT22;7953;54.302;10.128;2023-08-07T10:23:00;17.60;99.90
15707;DHT22;7953;54.302;10.128;2023-08-07T10:25:27;17.70;99.90
15707;DHT22;7953;54.302;10.128;2023-08-07T10:27:57;17.90;99.90
15707;DHT22;7953;54.302;10.128;2023-08-07T10:30:26;18.00;99.90
15707;DHT22;7953;54.302;10.128;2023-08-07T10:32:55;18.20;99.90
15707;DHT22;7953;54.302;10.128;2023-08-07T10:35:26;18.30;99.90
15707;DHT22;7953;54.302;10.128;2023-08-07T10:37:53;18.40;99.90
15707;DHT22;7953;54.302;10.128;2023-08-07T10:40:20;18.60;99.90
15707;DHT22;7953;54.302;10.128;2023-08-07T10:42:58;18.60;99.90
15707;DHT22;7953;54.302;10.128;2023-08-07T10:45:26;18.50;99.90
15707;DHT22;7953;54.302;10.128;2023-08-07T10:48:06;18.30;99.90
15707;DHT22;7953;54.302;10.128;2023-08-07T10:50:34;18.30;99.90
15707;DHT22;7953;54.302;10.128;2023-08-07T10:53:02;18.30;99.90
15707;DHT22;7953;54.302;10.128;2023-08-07T10:55:43;18.40;99.90
15707;DHT22;7953;54.302;10.128;2023-08-07T10:58:22;18.50;99.90
15707;DHT22;7953;54.302;10.128;2023-08-07T11:00:50;18.60;99.90
15707;DHT22;7953;54.302;10.128;2023-08-07T11:03:26;18.80;99.90
15707;DHT22;7953;54.302;10.128;2023-08-07T11:05:53;19.10;99.90
15707;DHT22;7953;54.302;10.128;2023-08-07T11:08:22;19.30;99.90
15707;DHT22;7953;54.302;10.128;2023-08-07T11:10:50;19.50;99.90
15707;DHT22;7953;54.302;10.128;2023-08-07T11:13:17;19.70;99.90
15707;DHT22;7953;54.302;10.128;2023-08-07T11:15:46;19.80;99.90
15707;DHT22;7953;54.302;10.128;2023-08-07T11:18:14;19.80;99.90
15707;DHT22;7953;54.302;10.128;2023-08-07T11:20:44;19.40;99.90
15707;DHT22;7953;54.302;10.128;2023-08-07T11:23:11;19.20;99.90
15707;DHT22;7953;54.302;10.128;2023-08-07T11:25:38;18.90;99.90
15707;DHT22;7953;54.302;10.128;2023-08-07T11:28:05;18.60;99.90
15707;DHT22;7953;54.302;10.128;2023-08-07T11:30:34;18.70;99.90
15707;DHT22;7953;54.302;10.128;2023-08-07T11:33:02;18.80;99.90
15707;DHT22;7953;54.302;10.128;2023-08-07T11:35:29;19.10;99.90
15707;DHT22;7953;54.302;10.128;2023-08-07T11:37:57;19.30;99.90
15707;DHT22;7953;54.302;10.128;2023-08-07T11:40:24;19.50;99.90
15707;DHT22;7953;54.302;10.128;2023-08-07T11:42:51;19.60;99.90
15707;DHT22;7953;54.302;10.128;2023-08-07T11:45:18;19.70;99.90
15707;DHT22;7953;54.302;10.128;2023-08-07T11:47:45;19.90;99.90
15707;DHT22;7953;54.302;10.128;2023-08-07T11:50:12;19.80;99.90
15707;DHT22;7953;54.302;10.128;2023-08-07T11:52:39;19.70;99.90
15707;DHT22;7953;54.302;10.128;2023-08-07T11:55:08;19.80;99.90
15707;DHT22;7953;54.302;10.128;2023-08-07T11:57:38;19.90;99.90
15707;DHT22;7953;54.302;10.128;2023-08-07T12:00:09;20.00;99.90
15707;DHT22;7953;54.302;10.128;2023-08-07T12:02:41;19.70;99.90
15707;DHT22;7953;54.302;10.128;2023-08-07T12:05:09;19.60;99.90
15707;DHT22;7953;54.302;10.128;2023-08-07T12:07:38;19.80;99.90
15707;DHT22;7953;54.302;10.128;2023-08-07T12:10:08;20.10;99.90
15707;DHT22;7953;54.302;10.128;2023-08-07T12:12:36;20.30;99.90
15707;DHT22;7953;54.302;10.128;2023-08-07T12:15:07;20.40;99.90
15707;DHT22;7953;54.302;10.128;2023-08-07T12:17:34;20.10;99.90
15707;DHT22;7953;54.302;10.128;2023-08-07T12:20:03;19.80;99.90
15707;DHT22;7953;54.302;10.128;2023-08-07T12:22:31;19.70;99.90
15707;DHT22;7953;54.302;10.128;2023-08-07T12:24:58;19.50;99.90
15707;DHT22;7953;54.302;10.128;2023-08-07T12:27:26;19.40;99.90
15707;DHT22;7953;54.302;10.128;2023-08-07T12:29:53;19.50;99.90
15707;DHT22;7953;54.302;10.128;2023-08-07T12:32:20;19.70;99.90
15707;DHT22;7953;54.302;10.128;2023-08-07T12:34:47;19.90;99.90
15707;DHT22;7953;54.302;10.128;2023-08-07T12:37:15;20.10;99.90
15707;DHT22;7953;54.302;10.128;2023-08-07T12:39:42;20.30;99.90
15707;DHT22;7953;54.302;10.128;2023-08-07T12:42:09;20.30;99.90
15707;DHT22;7953;54.302;10.128;2023-08-07T12:44:37;20.30;99.90
15707;DHT22;7953;54.302;10.128;2023-08-07T12:47:05;20.10;99.90
15707;DHT22;7953;54.302;10.128;2023-08-07T12:49:31;19.90;99.90
15707;DHT22;7953;54.302;10.128;2023-08-07T12:51:58;19.70;99.90
15707;DHT22;7953;54.302;10.128;2023-08-07T12:54:25;19.50;99.90
15707;DHT22;7953;54.302;10.128;2023-08-07T12:56:52;19.20;99.90
15707;DHT22;7953;54.302;10.128;2023-08-07T12:59:20;19.10;99.90
15707;DHT22;7953;54.302;10.128;2023-08-07T13:01:49;18.90;99.90
15707;DHT22;7953;54.302;10.128;2023-08-07T13:04:18;18.90;99.90
15707;DHT22;7953;54.302;10.128;2023-08-07T13:06:45;18.80;99.90
15707;DHT22;7953;54.302;10.128;2023-08-07T13:09:12;18.70;99.90
15707;DHT22;7953;54.302;10.128;2023-08-07T13:11:39;18.50;99.90
15707;DHT22;7953;54.302;10.128;2023-08-07T13:14:06;18.20;99.90
15707;DHT22;7953;54.302;10.128;2023-08-07T13:16:33;18.20;99.90
15707;DHT22;7953;54.302;10.128;2023-08-07T13:19:01;18.30;99.90
15707;DHT22;7953;54.302;10.128;2023-08-07T13:21:28;18.30;99.90
15707;DHT22;7953;54.302;10.128;2023-08-07T13:23:55;18.00;99.90
15707;DHT22;7953;54.302;10.128;2023-08-07T13:26:22;17.90;99.90
15707;DHT22;7953;54.302;10.128;2023-08-07T13:28:48;17.70;99.90
15707;DHT22;7953;54.302;10.128;2023-08-07T13:31:15;17.60;99.90
15707;DHT22;7953;54.302;10.128;2023-08-07T13:33:42;17.60;99.90
15707;DHT22;7953;54.302;10.128;2023-08-07T13:36:10;17.70;99.90
15707;DHT22;7953;54.302;10.128;2023-08-07T13:38:37;18.00;99.90
15707;DHT22;7953;54.302;10.128;2023-08-07T13:41:04;18.20;99.90
15707;DHT22;7953;54.302;10.128;2023-08-07T13:43:31;18.20;99.90
15707;DHT22;7953;54.302;10.128;2023-08-07T13:45:58;18.40;99.90
15707;DHT22;7953;54.302;10.128;2023-08-07T13:48:25;18.60;99.90
15707;DHT22;7953;54.302;10.128;2023-08-07T13:50:53;18.70;99.90
15707;DHT22;7953;54.302;10.128;2023-08-07T13:53:22;18.60;99.90
15707;DHT22;7953;54.302;10.128;2023-08-07T13:55:54;18.60;99.90
15707;DHT22;7953;54.302;10.128;2023-08-07T13:58:21;18.50;99.90
15707;DHT22;7953;54.302;10.128;2023-08-07T14:00:48;18.30;99.90
15707;DHT22;7953;54.302;10.128;2023-08-07T14:03:15;18.30;99.90
15707;DHT22;7953;54.302;10.128;2023-08-07T14:05:42;18.20;99.90
15707;DHT22;7953;54.302;10.128;2023-08-07T14:08:08;18.30;99.90
15707;DHT22;7953;54.302;10.128;2023-08-07T14:10:37;18.40;99.90
15707;DHT22;7953;54.302;10.128;2023-08-07T14:13:06;18.50;99.90
15707;DHT22;7953;54.302;10.128;2023-08-07T14:15:33;18.60;99.90
15707;DHT22;7953;54.302;10.128;2023-08-07T14:18:00;18.80;99.90
15707;DHT22;7953;54.302;10.128;2023-08-07T14:20:27;18.90;99.90
15707;DHT22;7953;54.302;10.128;2023-08-07T14:22:54;19.20;99.90
15707;DHT22;7953;54.302;10.128;2023-08-07T14:25:21;19.10;99.90
15707;DHT22;7953;54.302;10.128;2023-08-07T14:27:49;19.10;99.90
15707;DHT22;7953;54.302;10.128;2023-08-07T14:30:16;18.70;99.90
15707;DHT22;7953;54.302;10.128;2023-08-07T14:32:43;18.60;99.90
15707;DHT22;7953;54.302;10.128;2023-08-07T14:35:12;18.50;99.90
15707;DHT22;7953;54.302;10.128;2023-08-07T14:37:39;18.30;99.90
15707;DHT22;7953;54.302;10.128;2023-08-07T14:40:07;18.30;99.90
15707;DHT22;7953;54.302;10.128;2023-08-07T14:42:34;18.30;99.90
15707;DHT22;7953;54.302;10.128;2023-08-07T14:45:03;18.30;99.90
15707;DHT22;7953;54.302;10.128;2023-08-07T14:47:29;18.30;99.90
15707;DHT22;7953;54.302;10.128;2023-08-07T14:49:56;18.20;99.90
15707;DHT22;7953;54.302;10.128;2023-08-07T14:52:23;18.10;99.90
15707;DHT22;7953;54.302;10.128;2023-08-07T14:54:50;18.10;99.90
15707;DHT22;7953;54.302;10.128;2023-08-07T14:57:18;18.10;99.90
15707;DHT22;7953;54.302;10.128;2023-08-07T14:59:45;18.10;99.90
15707;DHT22;7953;54.302;10.128;2023-08-07T15:02:13;18.00;99.90
15707;DHT22;7953;54.302;10.128;2023-08-07T15:04:40;17.90;99.90
15707;DHT22;7953;54.302;10.128;2023-08-07T15:07:07;18.00;99.90
15707;DHT22;7953;54.302;10.128;2023-08-07T15:09:34;18.00;99.90
15707;DHT22;7953;54.302;10.128;2023-08-07T15:12:01;18.00;99.90
15707;DHT22;7953;54.302;10.128;2023-08-07T15:14:29;17.90;99.90
15707;DHT22;7953;54.302;10.128;2023-08-07T15:16:56;17.80;99.90
15707;DHT22;7953;54.302;10.128;2023-08-07T15:19:25;17.60;99.90
15707;DHT22;7953;54.302;10.128;2023-08-07T15:21:51;17.50;99.90
15707;DHT22;7953;54.302;10.128;2023-08-07T15:24:18;17.40;99.90
15707;DHT22;7953;54.302;10.128;2023-08-07T15:26:45;17.40;99.90
15707;DHT22;7953;54.302;10.128;2023-08-07T15:29:12;17.30;99.90
15707;DHT22;7953;54.302;10.128;2023-08-07T15:31:39;17.20;99.90
15707;DHT22;7953;54.302;10.128;2023-08-07T15:34:06;17.20;99.90